createdAt,value
2018-07-01T00:00:27.448Z,1003.27
2018-07-01T00:01:27.454Z,1003.28
2018-07-01T00:02:27.448Z,1003.30
2018-07-01T00:03:27.453Z,1003.28
2018-07-01T00:04:27.448Z,1003.29
2018-07-01T00:05:27.448Z,1003.30
2018-07-01T00:06:27.448Z,1003.30
2018-07-01T00:07:27.447Z,1003.28
2018-07-01T00:08:27.451Z,1003.29
2018-07-01T00:09:27.486Z,1003.25
2018-07-01T00:10:27.451Z,1003.29
2018-07-01T00:11:27.460Z,1003.28
2018-07-01T00:12:27.453Z,1003.31
2018-07-01T00:13:27.450Z,1003.27
2018-07-01T00:14:27.457Z,1003.27
2018-07-01T00:15:27.447Z,1003.27
2018-07-01T00:16:27.455Z,1003.27
2018-07-01T00:17:27.449Z,1003.27
2018-07-01T00:18:27.461Z,1003.25
2018-07-01T00:19:27.449Z,1003.23
2018-07-01T00:20:27.450Z,1003.24
2018-07-01T00:21:27.449Z,1003.22
2018-07-01T00:22:27.456Z,1003.23
2018-07-01T00:23:27.472Z,1003.22
2018-07-01T00:24:27.452Z,1003.23
2018-07-01T00:25:27.448Z,1003.26
2018-07-01T00:26:27.449Z,1003.27
2018-07-01T00:27:27.482Z,1003.22
2018-07-01T00:28:27.449Z,1003.22
2018-07-01T00:29:27.500Z,1003.23
2018-07-01T00:30:27.449Z,1003.23
2018-07-01T00:31:27.449Z,1003.18
2018-07-01T00:32:27.483Z,1003.20
2018-07-01T00:33:27.453Z,1003.16
2018-07-01T00:34:27.448Z,1003.20
2018-07-01T00:35:27.449Z,1003.25
2018-07-01T00:36:27.483Z,1003.24
2018-07-01T00:37:27.451Z,1003.28
2018-07-01T00:38:27.451Z,1003.27
2018-07-01T00:39:27.451Z,1003.28
2018-07-01T00:40:27.450Z,1003.26
2018-07-01T00:41:27.449Z,1003.28
2018-07-01T00:42:27.447Z,1003.25
2018-07-01T00:43:27.462Z,1003.22
2018-07-01T00:44:27.449Z,1003.27
2018-07-01T00:45:27.448Z,1003.28
2018-07-01T00:46:27.448Z,1003.28
2018-07-01T00:47:27.451Z,1003.28
2018-07-01T00:48:27.473Z,1003.33
2018-07-01T00:49:27.446Z,1003.30
2018-07-01T00:50:27.446Z,1003.31
2018-07-01T00:51:27.457Z,1003.28
2018-07-01T00:52:27.463Z,1003.30
2018-07-01T00:53:27.469Z,1003.32
2018-07-01T00:54:27.451Z,1003.29
2018-07-01T00:55:27.445Z,1003.28
2018-07-01T00:56:27.453Z,1003.28
2018-07-01T00:57:27.449Z,1003.30
2018-07-01T00:58:27.443Z,1003.30
2018-07-01T00:59:27.443Z,1003.30
2018-07-01T01:00:27.450Z,1003.32
2018-07-01T01:01:27.456Z,1003.34
2018-07-01T01:02:27.452Z,1003.31
2018-07-01T01:03:27.444Z,1003.31
2018-07-01T01:04:27.442Z,1003.29
2018-07-01T01:05:27.442Z,1003.29
2018-07-01T01:06:27.460Z,1003.32
2018-07-01T01:07:27.442Z,1003.30
2018-07-01T01:08:27.464Z,1003.29
2018-07-01T01:09:27.441Z,1003.28
2018-07-01T01:10:27.445Z,1003.28
2018-07-01T01:11:27.439Z,1003.35
2018-07-01T01:12:27.475Z,1003.35
2018-07-01T01:13:27.438Z,1003.35
2018-07-01T01:14:27.440Z,1003.37
2018-07-01T01:15:27.437Z,1003.35
2018-07-01T01:16:27.440Z,1003.37
2018-07-01T01:17:27.516Z,1003.39
2018-07-01T01:18:27.437Z,1003.42
2018-07-01T01:19:27.434Z,1003.37
2018-07-01T01:20:27.438Z,1003.35
2018-07-01T01:21:27.434Z,1003.35
2018-07-01T01:22:27.435Z,1003.36
2018-07-01T01:23:27.433Z,1003.37
2018-07-01T01:24:27.435Z,1003.39
2018-07-01T01:25:27.433Z,1003.36
2018-07-01T01:26:27.432Z,1003.38
2018-07-01T01:27:27.436Z,1003.37
2018-07-01T01:28:27.430Z,1003.38
2018-07-01T01:29:27.432Z,1003.32
2018-07-01T01:30:27.430Z,1003.38
2018-07-01T01:31:27.429Z,1003.40
2018-07-01T01:32:27.430Z,1003.39
2018-07-01T01:33:27.428Z,1003.36
2018-07-01T01:34:27.426Z,1003.31
2018-07-01T01:35:27.432Z,1003.33
2018-07-01T01:36:27.425Z,1003.36
2018-07-01T01:37:27.549Z,1003.33
2018-07-01T01:38:27.424Z,1003.37
2018-07-01T01:39:27.423Z,1003.34
2018-07-01T01:40:27.422Z,1003.40
2018-07-01T01:41:27.423Z,1003.38
2018-07-01T01:42:27.436Z,1003.41
2018-07-01T01:43:27.424Z,1003.42
2018-07-01T01:44:27.449Z,1003.40
2018-07-01T01:45:28.713Z,1003.40
2018-07-01T01:46:27.418Z,1003.38
2018-07-01T01:47:27.421Z,1003.41
2018-07-01T01:48:27.417Z,1003.42
2018-07-01T01:49:27.424Z,1003.43
2018-07-01T01:50:27.416Z,1003.41
2018-07-01T01:51:27.421Z,1003.42
2018-07-01T01:52:27.452Z,1003.46
2018-07-01T01:53:27.414Z,1003.45
2018-07-01T01:54:27.419Z,1003.45
2018-07-01T01:55:27.423Z,1003.44
2018-07-01T01:56:27.414Z,1003.42
2018-07-01T01:57:27.412Z,1003.43
2018-07-01T01:58:27.412Z,1003.44
2018-07-01T01:59:27.410Z,1003.47
2018-07-01T02:00:27.411Z,1003.45
2018-07-01T02:01:27.408Z,1003.44
2018-07-01T02:02:27.407Z,1003.44
2018-07-01T02:03:27.405Z,1003.45
2018-07-01T02:04:27.406Z,1003.42
2018-07-01T02:05:27.406Z,1003.41
2018-07-01T02:06:27.406Z,1003.42
2018-07-01T02:07:27.407Z,1003.40
2018-07-01T02:08:27.404Z,1003.44
2018-07-01T02:09:27.401Z,1003.45
2018-07-01T02:10:27.400Z,1003.43
2018-07-01T02:11:27.398Z,1003.40
2018-07-01T02:12:27.398Z,1003.39
2018-07-01T02:13:27.396Z,1003.42
2018-07-01T02:14:27.395Z,1003.42
2018-07-01T02:15:27.395Z,1003.41
2018-07-01T02:16:27.394Z,1003.41
2018-07-01T02:17:27.399Z,1003.40
2018-07-01T02:18:27.392Z,1003.40
2018-07-01T02:19:27.397Z,1003.45
2018-07-01T02:20:27.391Z,1003.45
2018-07-01T02:21:27.391Z,1003.47
2018-07-01T02:22:27.387Z,1003.45
2018-07-01T02:23:27.388Z,1003.50
2018-07-01T02:24:27.387Z,1003.50
2018-07-01T02:25:27.411Z,1003.47
2018-07-01T02:26:27.390Z,1003.48
2018-07-01T02:27:27.386Z,1003.46
2018-07-01T02:28:27.386Z,1003.47
2018-07-01T02:29:27.383Z,1003.50
2018-07-01T02:30:27.381Z,1003.47
2018-07-01T02:31:27.378Z,1003.44
2018-07-01T02:32:27.379Z,1003.42
2018-07-01T02:33:27.387Z,1003.45
2018-07-01T02:34:27.376Z,1003.40
2018-07-01T02:35:27.458Z,1003.38
2018-07-01T02:36:27.377Z,1003.41
2018-07-01T02:37:27.373Z,1003.43
2018-07-01T02:38:27.371Z,1003.43
2018-07-01T02:39:27.369Z,1003.44
2018-07-01T02:40:27.379Z,1003.45
2018-07-01T02:41:27.368Z,1003.46
2018-07-01T02:42:27.368Z,1003.48
2018-07-01T02:43:27.365Z,1003.49
2018-07-01T02:44:27.365Z,1003.45
2018-07-01T02:45:27.363Z,1003.46
2018-07-01T02:46:27.361Z,1003.51
2018-07-01T02:47:27.361Z,1003.47
2018-07-01T02:48:27.360Z,1003.46
2018-07-01T02:49:27.359Z,1003.50
2018-07-01T02:50:27.359Z,1003.51
2018-07-01T02:51:27.360Z,1003.48
2018-07-01T02:52:27.356Z,1003.51
2018-07-01T02:53:27.354Z,1003.50
2018-07-01T02:54:27.352Z,1003.49
2018-07-01T02:55:27.356Z,1003.53
2018-07-01T02:56:27.352Z,1003.55
2018-07-01T02:57:27.352Z,1003.50
2018-07-01T02:58:27.346Z,1003.49
2018-07-01T02:59:27.350Z,1003.51
2018-07-01T03:00:27.401Z,1003.47
2018-07-01T03:01:27.344Z,1003.51
2018-07-01T03:02:27.342Z,1003.45
2018-07-01T03:03:27.340Z,1003.48
2018-07-01T03:04:27.341Z,1003.50
2018-07-01T03:05:27.346Z,1003.51
2018-07-01T03:06:27.345Z,1003.48
2018-07-01T03:07:27.336Z,1003.51
2018-07-01T03:08:27.338Z,1003.51
2018-07-01T03:09:27.342Z,1003.48
2018-07-01T03:10:27.331Z,1003.47
2018-07-01T03:11:27.331Z,1003.47
2018-07-01T03:12:27.329Z,1003.49
2018-07-01T03:13:27.335Z,1003.48
2018-07-01T03:14:27.329Z,1003.51
2018-07-01T03:15:27.325Z,1003.49
2018-07-01T03:16:27.332Z,1003.50
2018-07-01T03:17:27.324Z,1003.49
2018-07-01T03:18:42.118Z,1003.53
2018-07-01T03:19:27.320Z,1003.52
2018-07-01T03:20:27.318Z,1003.54
2018-07-01T03:21:27.317Z,1003.55
2018-07-01T03:22:27.316Z,1003.56
2018-07-01T03:23:27.313Z,1003.58
2018-07-01T03:24:27.312Z,1003.56
2018-07-01T03:25:27.314Z,1003.58
2018-07-01T03:26:27.310Z,1003.58
2018-07-01T03:27:27.310Z,1003.59
2018-07-01T03:28:27.305Z,1003.63
2018-07-01T03:29:27.306Z,1003.60
2018-07-01T03:30:27.307Z,1003.60
2018-07-01T03:31:27.301Z,1003.64
2018-07-01T03:32:27.301Z,1003.63
2018-07-01T03:33:27.298Z,1003.63
2018-07-01T03:34:27.297Z,1003.64
2018-07-01T03:35:27.295Z,1003.66
2018-07-01T03:36:27.294Z,1003.62
2018-07-01T03:37:27.293Z,1003.63
2018-07-01T03:38:27.290Z,1003.64
2018-07-01T03:39:27.289Z,1003.65
2018-07-01T03:40:27.287Z,1003.69
2018-07-01T03:41:27.291Z,1003.69
2018-07-01T03:42:27.286Z,1003.70
2018-07-01T03:43:27.284Z,1003.74
2018-07-01T03:44:27.282Z,1003.77
2018-07-01T03:45:27.279Z,1003.79
2018-07-01T03:46:27.278Z,1003.77
2018-07-01T03:47:27.278Z,1003.74
2018-07-01T03:48:27.274Z,1003.77
2018-07-01T03:49:27.277Z,1003.77
2018-07-01T03:50:27.271Z,1003.80
2018-07-01T03:51:27.270Z,1003.79
2018-07-01T03:52:27.288Z,1003.81
2018-07-01T03:53:27.596Z,1003.82
2018-07-01T03:54:27.267Z,1003.78
2018-07-01T03:55:27.264Z,1003.82
2018-07-01T03:56:27.279Z,1003.80
2018-07-01T03:57:27.261Z,1003.83
2018-07-01T03:58:27.260Z,1003.85
2018-07-01T03:59:27.314Z,1003.80
2018-07-01T04:00:27.315Z,1003.81
2018-07-01T04:01:27.257Z,1003.84
2018-07-01T04:02:27.256Z,1003.86
2018-07-01T04:03:27.252Z,1003.83
2018-07-01T04:04:27.252Z,1003.89
2018-07-01T04:05:27.251Z,1003.86
2018-07-01T04:06:27.250Z,1003.90
2018-07-01T04:07:27.247Z,1003.85
2018-07-01T04:08:27.249Z,1003.91
2018-07-01T04:09:27.248Z,1003.93
2018-07-01T04:10:27.244Z,1003.92
2018-07-01T04:11:27.242Z,1003.92
2018-07-01T04:12:27.244Z,1003.90
2018-07-01T04:13:27.241Z,1003.92
2018-07-01T04:14:27.239Z,1003.89
2018-07-01T04:15:27.241Z,1003.91
2018-07-01T04:16:27.243Z,1003.94
2018-07-01T04:17:27.235Z,1003.87
2018-07-01T04:18:27.236Z,1003.91
2018-07-01T04:19:27.231Z,1003.85
2018-07-01T04:20:27.232Z,1003.87
2018-07-01T04:21:27.231Z,1003.84
2018-07-01T04:22:27.229Z,1003.85
2018-07-01T04:23:27.229Z,1003.86
2018-07-01T04:24:27.226Z,1003.86
2018-07-01T04:25:27.228Z,1003.86
2018-07-01T04:26:27.228Z,1003.87
2018-07-01T04:27:27.224Z,1003.84
2018-07-01T04:28:27.222Z,1003.83
2018-07-01T04:29:27.221Z,1003.84
2018-07-01T04:30:27.244Z,1003.83
2018-07-01T04:31:27.219Z,1003.90
2018-07-01T04:32:27.218Z,1003.87
2018-07-01T04:33:27.221Z,1003.89
2018-07-01T04:34:27.215Z,1003.90
2018-07-01T04:35:27.216Z,1003.93
2018-07-01T04:36:27.215Z,1003.90
2018-07-01T04:37:27.214Z,1003.89
2018-07-01T04:38:27.220Z,1003.89
2018-07-01T04:39:27.222Z,1003.90
2018-07-01T04:40:27.211Z,1003.90
2018-07-01T04:41:27.212Z,1003.91
2018-07-01T04:42:27.208Z,1003.89
2018-07-01T04:43:27.208Z,1003.86
2018-07-01T04:44:27.207Z,1003.86
2018-07-01T04:45:27.207Z,1003.86
2018-07-01T04:46:27.210Z,1003.87
2018-07-01T04:47:27.205Z,1003.86
2018-07-01T04:48:27.208Z,1003.85
2018-07-01T04:49:27.203Z,1003.84
2018-07-01T04:50:27.202Z,1003.86
2018-07-01T04:51:27.202Z,1003.86
2018-07-01T04:52:27.208Z,1003.88
2018-07-01T04:53:27.199Z,1003.86
2018-07-01T04:54:27.198Z,1003.89
2018-07-01T04:55:27.297Z,1003.93
2018-07-01T04:56:27.198Z,1003.93
2018-07-01T04:57:27.196Z,1003.95
2018-07-01T04:58:27.196Z,1003.92
2018-07-01T04:59:27.194Z,1003.92
2018-07-01T05:00:27.194Z,1003.92
2018-07-01T05:01:27.192Z,1003.88
2018-07-01T05:02:27.240Z,1003.91
2018-07-01T05:03:27.191Z,1003.91
2018-07-01T05:04:27.189Z,1003.94
2018-07-01T05:05:27.193Z,1003.91
2018-07-01T05:06:27.188Z,1003.96
2018-07-01T05:07:27.186Z,1003.96
2018-07-01T05:08:27.187Z,1003.96
2018-07-01T05:09:27.190Z,1003.94
2018-07-01T05:10:27.187Z,1003.98
2018-07-01T05:11:27.183Z,1003.96
2018-07-01T05:12:27.183Z,1003.96
2018-07-01T05:13:27.183Z,1003.96
2018-07-01T05:14:27.180Z,1003.97
2018-07-01T05:15:27.180Z,1004.00
2018-07-01T05:16:27.181Z,1004.02
2018-07-01T05:17:27.180Z,1004.06
2018-07-01T05:18:27.180Z,1004.05
2018-07-01T05:19:27.181Z,1004.10
2018-07-01T05:20:27.179Z,1004.10
2018-07-01T05:21:27.180Z,1004.05
2018-07-01T05:22:27.181Z,1004.09
2018-07-01T05:23:27.185Z,1004.07
2018-07-01T05:24:27.181Z,1004.08
2018-07-01T05:25:27.183Z,1004.09
2018-07-01T05:26:27.183Z,1004.06
2018-07-01T05:27:27.185Z,1004.06
2018-07-01T05:28:27.198Z,1004.06
2018-07-01T05:29:27.189Z,1004.07
2018-07-01T05:30:27.186Z,1004.07
2018-07-01T05:31:27.189Z,1004.03
2018-07-01T05:32:27.193Z,1004.06
2018-07-01T05:33:27.192Z,1004.10
2018-07-01T05:34:27.190Z,1004.08
2018-07-01T05:35:27.192Z,1004.09
2018-07-01T05:36:27.194Z,1004.13
2018-07-01T05:37:27.201Z,1004.10
2018-07-01T05:38:27.207Z,1004.08
2018-07-01T05:39:27.198Z,1004.13
2018-07-01T05:40:27.203Z,1004.12
2018-07-01T05:41:27.206Z,1004.12
2018-07-01T05:42:27.203Z,1004.12
2018-07-01T05:43:27.206Z,1004.12
2018-07-01T05:44:27.208Z,1004.12
2018-07-01T05:45:27.211Z,1004.09
2018-07-01T05:46:27.211Z,1004.08
2018-07-01T05:47:27.215Z,1004.14
2018-07-01T05:48:27.216Z,1004.06
2018-07-01T05:49:27.254Z,1004.08
2018-07-01T05:50:27.217Z,1004.06
2018-07-01T05:51:27.220Z,1004.06
2018-07-01T05:52:27.220Z,1004.04
2018-07-01T05:53:27.229Z,1004.01
2018-07-01T05:54:27.222Z,1004.03
2018-07-01T05:55:27.224Z,1004.00
2018-07-01T05:56:27.228Z,1004.00
2018-07-01T05:57:27.228Z,1003.99
2018-07-01T05:58:27.240Z,1004.02
2018-07-01T05:59:27.230Z,1003.98
2018-07-01T06:00:27.233Z,1004.02
2018-07-01T06:01:27.233Z,1004.04
2018-07-01T06:02:27.233Z,1004.04
2018-07-01T06:03:27.236Z,1003.98
2018-07-01T06:04:27.238Z,1004.03
2018-07-01T06:05:27.244Z,1004.05
2018-07-01T06:06:27.239Z,1004.03
2018-07-01T06:07:27.250Z,1004.08
2018-07-01T06:08:27.243Z,1004.12
2018-07-01T06:09:27.266Z,1004.11
2018-07-01T06:10:27.245Z,1004.10
2018-07-01T06:11:27.246Z,1004.12
2018-07-01T06:12:27.251Z,1004.09
2018-07-01T06:13:27.249Z,1004.10
2018-07-01T06:14:27.253Z,1004.10
2018-07-01T06:15:27.255Z,1004.13
2018-07-01T06:16:27.273Z,1004.14
2018-07-01T06:17:27.255Z,1004.12
2018-07-01T06:18:27.255Z,1004.11
2018-07-01T06:19:27.257Z,1004.14
2018-07-01T06:20:27.259Z,1004.11
2018-07-01T06:21:27.260Z,1004.13
2018-07-01T06:22:27.262Z,1004.12
2018-07-01T06:23:27.262Z,1004.09
2018-07-01T06:24:27.311Z,1004.08
2018-07-01T06:25:27.271Z,1004.07
2018-07-01T06:26:27.270Z,1004.08
2018-07-01T06:27:27.276Z,1004.08
2018-07-01T06:28:27.272Z,1004.08
2018-07-01T06:29:27.278Z,1004.08
2018-07-01T06:30:27.274Z,1004.11
2018-07-01T06:31:27.276Z,1004.09
2018-07-01T06:32:27.280Z,1004.09
2018-07-01T06:33:27.282Z,1004.09
2018-07-01T06:34:27.282Z,1004.09
2018-07-01T06:35:27.286Z,1004.11
2018-07-01T06:36:27.288Z,1004.09
2018-07-01T06:37:27.285Z,1004.11
2018-07-01T06:38:27.287Z,1004.07
2018-07-01T06:39:27.287Z,1004.10
2018-07-01T06:40:27.290Z,1004.09
2018-07-01T06:41:27.291Z,1004.09
2018-07-01T06:42:27.292Z,1004.11
2018-07-01T06:43:27.294Z,1004.08
2018-07-01T06:44:27.307Z,1004.13
2018-07-01T06:45:27.297Z,1004.13
2018-07-01T06:46:27.298Z,1004.09
2018-07-01T06:47:27.298Z,1004.09
2018-07-01T06:48:27.301Z,1004.09
2018-07-01T06:49:27.316Z,1004.16
2018-07-01T06:50:27.302Z,1004.11
2018-07-01T06:51:27.302Z,1004.10
2018-07-01T06:52:27.310Z,1004.07
2018-07-01T06:53:27.310Z,1004.09
2018-07-01T06:54:27.307Z,1004.07
2018-07-01T06:55:27.312Z,1004.07
2018-07-01T06:56:27.364Z,1004.10
2018-07-01T06:57:27.311Z,1004.10
2018-07-01T06:58:27.316Z,1004.07
2018-07-01T06:59:27.313Z,1004.11
2018-07-01T07:00:27.314Z,1004.07
2018-07-01T07:01:27.318Z,1004.08
2018-07-01T07:02:27.390Z,1004.06
2018-07-01T07:03:27.320Z,1004.11
2018-07-01T07:04:27.318Z,1004.08
2018-07-01T07:05:27.324Z,1004.10
2018-07-01T07:06:27.322Z,1004.09
2018-07-01T07:07:27.321Z,1004.07
2018-07-01T07:08:27.323Z,1004.05
2018-07-01T07:09:27.324Z,1004.04
2018-07-01T07:10:27.326Z,1004.03
2018-07-01T07:11:27.325Z,1003.98
2018-07-01T07:12:27.361Z,1004.04
2018-07-01T07:13:27.330Z,1004.07
2018-07-01T07:14:27.328Z,1004.03
2018-07-01T07:15:27.334Z,1004.03
2018-07-01T07:16:27.331Z,1003.99
2018-07-01T07:17:27.332Z,1004.08
2018-07-01T07:18:27.332Z,1004.03
2018-07-01T07:19:27.334Z,1004.04
2018-07-01T07:20:27.335Z,1004.01
2018-07-01T07:21:27.337Z,1004.04
2018-07-01T07:22:27.341Z,1004.02
2018-07-01T07:23:27.337Z,1004.02
2018-07-01T07:24:27.399Z,1004.06
2018-07-01T07:25:27.340Z,1003.97
2018-07-01T07:26:27.340Z,1004.03
2018-07-01T07:27:27.343Z,1004.03
2018-07-01T07:28:27.343Z,1004.05
2018-07-01T07:29:27.342Z,1003.97
2018-07-01T07:30:27.346Z,1004.02
2018-07-01T07:31:27.345Z,1003.99
2018-07-01T07:32:27.344Z,1004.03
2018-07-01T07:33:27.349Z,1004.03
2018-07-01T07:34:27.345Z,1004.01
2018-07-01T07:35:27.347Z,1003.98
2018-07-01T07:36:27.348Z,1004.08
2018-07-01T07:37:27.347Z,1004.04
2018-07-01T07:38:27.349Z,1004.00
2018-07-01T07:39:27.348Z,1003.99
2018-07-01T07:40:27.356Z,1003.97
2018-07-01T07:41:27.350Z,1004.01
2018-07-01T07:42:27.351Z,1003.98
2018-07-01T07:43:27.354Z,1003.98
2018-07-01T07:44:27.356Z,1003.95
2018-07-01T07:45:27.356Z,1003.97
2018-07-01T07:46:27.351Z,1003.90
2018-07-01T07:47:27.356Z,1004.02
2018-07-01T07:48:27.356Z,1003.95
2018-07-01T07:49:27.356Z,1004.00
2018-07-01T07:50:27.355Z,1004.01
2018-07-01T07:51:27.356Z,1004.00
2018-07-01T07:52:27.357Z,1004.05
2018-07-01T07:53:27.357Z,1004.00
2018-07-01T07:54:27.357Z,1004.00
2018-07-01T07:55:27.364Z,1004.00
2018-07-01T07:56:27.359Z,1004.08
2018-07-01T07:57:27.361Z,1004.02
2018-07-01T07:58:27.361Z,1004.07
2018-07-01T07:59:27.366Z,1004.03
2018-07-01T08:00:27.380Z,1003.94
2018-07-01T08:01:27.364Z,1003.92
2018-07-01T08:02:27.386Z,1003.93
2018-07-01T08:03:27.367Z,1003.98
2018-07-01T08:04:27.368Z,1003.98
2018-07-01T08:05:27.369Z,1003.99
2018-07-01T08:06:27.369Z,1004.03
2018-07-01T08:07:27.431Z,1003.97
2018-07-01T08:08:27.369Z,1003.97
2018-07-01T08:09:27.371Z,1003.95
2018-07-01T08:10:27.375Z,1003.92
2018-07-01T08:11:27.371Z,1003.94
2018-07-01T08:12:27.376Z,1003.93
2018-07-01T08:13:27.377Z,1003.85
2018-07-01T08:14:27.381Z,1003.91
2018-07-01T08:15:27.380Z,1003.87
2018-07-01T08:16:27.377Z,1003.87
2018-07-01T08:17:27.379Z,1003.89
2018-07-01T08:18:27.378Z,1003.97
2018-07-01T08:19:27.380Z,1003.90
2018-07-01T08:20:27.380Z,1003.96
2018-07-01T08:21:27.383Z,1003.95
2018-07-01T08:22:27.382Z,1003.94
2018-07-01T08:23:27.386Z,1004.02
2018-07-01T08:24:27.385Z,1003.94
2018-07-01T08:25:27.386Z,1003.88
2018-07-01T08:26:27.388Z,1003.93
2018-07-01T08:27:27.398Z,1003.80
2018-07-01T08:28:27.388Z,1003.91
2018-07-01T08:29:27.443Z,1003.88
2018-07-01T08:30:27.392Z,1003.89
2018-07-01T08:31:27.395Z,1003.89
2018-07-01T08:32:27.394Z,1003.81
2018-07-01T08:33:27.396Z,1003.90
2018-07-01T08:34:27.449Z,1003.87
2018-07-01T08:35:27.397Z,1003.87
2018-07-01T08:36:27.397Z,1003.89
2018-07-01T08:37:27.401Z,1003.82
2018-07-01T08:38:27.404Z,1003.80
2018-07-01T08:39:27.406Z,1003.84
2018-07-01T08:40:27.408Z,1003.73
2018-07-01T08:41:27.408Z,1003.83
2018-07-01T08:42:27.414Z,1003.75
2018-07-01T08:43:27.412Z,1003.81
2018-07-01T08:44:27.416Z,1003.83
2018-07-01T08:45:27.419Z,1003.83
2018-07-01T08:46:27.425Z,1003.76
2018-07-01T08:47:27.427Z,1003.86
2018-07-01T08:48:27.431Z,1003.91
2018-07-01T08:49:27.437Z,1003.85
2018-07-01T08:50:27.438Z,1003.84
2018-07-01T08:51:27.442Z,1003.82
2018-07-01T08:52:27.469Z,1003.92
2018-07-01T08:53:27.454Z,1003.85
2018-07-01T08:54:27.458Z,1003.92
2018-07-01T08:55:27.466Z,1003.89
2018-07-01T08:56:27.473Z,1003.87
2018-07-01T08:57:27.483Z,1003.91
2018-07-01T08:58:27.479Z,1003.91
2018-07-01T08:59:27.485Z,1003.88
2018-07-01T09:00:27.491Z,1003.93
2018-07-01T09:01:27.496Z,1003.97
2018-07-01T09:02:27.502Z,1003.90
2018-07-01T09:03:27.508Z,1003.91
2018-07-01T09:04:27.516Z,1003.95
2018-07-01T09:05:27.522Z,1003.98
2018-07-01T09:06:27.528Z,1003.93
2018-07-01T09:07:27.534Z,1004.02
2018-07-01T09:08:27.590Z,1003.99
2018-07-01T09:09:27.566Z,1004.00
2018-07-01T09:10:27.554Z,1004.01
2018-07-01T09:11:27.562Z,1003.97
2018-07-01T09:12:27.581Z,1003.98
2018-07-01T09:13:27.580Z,1003.95
2018-07-01T09:14:27.603Z,1003.93
2018-07-01T09:15:27.594Z,1004.01
2018-07-01T09:16:27.599Z,1004.08
2018-07-01T09:17:27.606Z,1004.04
2018-07-01T09:18:27.613Z,1004.01
2018-07-01T09:19:27.627Z,1003.97
2018-07-01T09:20:27.630Z,1004.00
2018-07-01T09:21:27.636Z,1004.02
2018-07-01T09:22:27.647Z,1003.94
2018-07-01T09:23:27.689Z,1003.93
2018-07-01T09:24:27.669Z,1003.98
2018-07-01T09:25:27.669Z,1003.94
2018-07-01T09:26:27.681Z,1004.00
2018-07-01T09:27:27.685Z,1003.97
2018-07-01T09:28:27.692Z,1004.01
2018-07-01T09:29:27.700Z,1004.04
2018-07-01T09:30:27.710Z,1004.00
2018-07-01T09:31:27.716Z,1003.95
2018-07-01T09:32:27.724Z,1003.94
2018-07-01T09:33:27.736Z,1003.85
2018-07-01T09:34:27.794Z,1003.95
2018-07-01T09:35:27.748Z,1003.91
2018-07-01T09:36:27.756Z,1003.94
2018-07-01T09:37:27.769Z,1003.96
2018-07-01T09:38:27.774Z,1003.97
2018-07-01T09:39:27.781Z,1003.97
2018-07-01T09:40:27.790Z,1003.98
2018-07-01T09:41:27.799Z,1003.93
2018-07-01T09:42:27.808Z,1003.93
2018-07-01T09:43:27.845Z,1003.93
2018-07-01T09:44:27.828Z,1003.88
2018-07-01T09:45:27.834Z,1003.92
2018-07-01T09:46:27.845Z,1003.94
2018-07-01T09:47:27.856Z,1003.92
2018-07-01T09:48:27.868Z,1003.94
2018-07-01T09:49:27.871Z,1003.96
2018-07-01T09:50:27.970Z,1003.91
2018-07-01T09:51:27.892Z,1003.83
2018-07-01T09:52:27.899Z,1003.93
2018-07-01T09:53:27.910Z,1003.94
2018-07-01T09:54:27.918Z,1003.95
2018-07-01T09:55:27.930Z,1003.96
2018-07-01T09:56:27.938Z,1003.87
2018-07-01T09:57:27.948Z,1003.90
2018-07-01T09:58:27.957Z,1003.95
2018-07-01T09:59:27.968Z,1003.95
2018-07-01T10:00:27.978Z,1003.96
2018-07-01T10:01:27.990Z,1003.95
2018-07-01T10:02:28.004Z,1004.04
2018-07-01T10:03:28.013Z,1004.06
2018-07-01T10:04:28.020Z,1003.90
2018-07-01T10:05:28.031Z,1004.02
2018-07-01T10:06:28.040Z,1004.06
2018-07-01T10:07:28.051Z,1004.03
2018-07-01T10:08:28.062Z,1004.05
2018-07-01T10:09:28.072Z,1004.06
2018-07-01T10:10:28.084Z,1004.09
2018-07-01T10:11:28.092Z,1004.07
2018-07-01T10:12:28.107Z,1004.10
2018-07-01T10:13:28.114Z,1004.13
2018-07-01T10:14:28.146Z,1004.05
2018-07-01T10:15:28.133Z,1004.05
2018-07-01T10:16:28.152Z,1004.01
2018-07-01T10:17:28.157Z,1003.99
2018-07-01T10:18:28.176Z,1004.04
2018-07-01T10:19:28.177Z,1004.04
2018-07-01T10:20:28.185Z,1004.04
2018-07-01T10:21:28.205Z,1004.04
2018-07-01T10:22:28.204Z,1003.97
2018-07-01T10:23:28.215Z,1003.91
2018-07-01T10:24:28.225Z,1003.96
2018-07-01T10:25:28.236Z,1004.00
2018-07-01T10:26:28.328Z,1003.92
2018-07-01T10:27:28.259Z,1003.91
2018-07-01T10:28:28.269Z,1003.85
2018-07-01T10:29:28.278Z,1003.88
2018-07-01T10:30:28.291Z,1003.88
2018-07-01T10:31:28.304Z,1003.90
2018-07-01T10:32:28.353Z,1003.89
2018-07-01T10:33:28.325Z,1003.88
2018-07-01T10:34:28.335Z,1003.85
2018-07-01T10:35:28.727Z,1003.91
2018-07-01T10:36:28.362Z,1003.89
2018-07-01T10:37:28.371Z,1003.83
2018-07-01T10:38:28.389Z,1003.82
2018-07-01T10:39:28.392Z,1003.81
2018-07-01T10:40:28.411Z,1003.76
2018-07-01T10:41:28.418Z,1003.86
2018-07-01T10:42:28.430Z,1003.97
2018-07-01T10:43:28.438Z,1003.98
2018-07-01T10:44:28.451Z,1003.95
2018-07-01T10:45:28.463Z,1003.97
2018-07-01T10:46:28.474Z,1003.91
2018-07-01T10:47:28.486Z,1003.90
2018-07-01T10:48:28.500Z,1003.86
2018-07-01T10:49:28.509Z,1003.88
2018-07-01T10:50:28.521Z,1003.89
2018-07-01T10:51:28.666Z,1003.90
2018-07-01T10:52:28.550Z,1003.91
2018-07-01T10:53:28.563Z,1003.89
2018-07-01T10:54:28.571Z,1003.90
2018-07-01T10:55:28.578Z,1003.91
2018-07-01T10:56:28.594Z,1003.87
2018-07-01T10:57:28.614Z,1003.93
2018-07-01T10:58:28.616Z,1003.94
2018-07-01T10:59:28.628Z,1003.96
2018-07-01T11:00:28.637Z,1003.95
2018-07-01T11:01:28.651Z,1003.87
2018-07-01T11:02:28.663Z,1003.91
2018-07-01T11:03:28.677Z,1003.89
2018-07-01T11:04:28.687Z,1003.80
2018-07-01T11:05:28.700Z,1003.85
2018-07-01T11:06:28.709Z,1003.91
2018-07-01T11:07:28.731Z,1003.89
2018-07-01T11:08:28.737Z,1003.85
2018-07-01T11:09:28.748Z,1003.90
2018-07-01T11:10:28.757Z,1003.78
2018-07-01T11:11:28.774Z,1003.76
2018-07-01T11:12:28.791Z,1003.76
2018-07-01T11:13:28.796Z,1003.87
2018-07-01T11:14:28.831Z,1003.90
2018-07-01T11:15:28.818Z,1003.75
2018-07-01T11:16:28.832Z,1003.86
2018-07-01T11:17:28.841Z,1003.88
2018-07-01T11:18:28.859Z,1003.84
2018-07-01T11:19:28.866Z,1003.80
2018-07-01T11:20:28.876Z,1003.75
2018-07-01T11:21:28.888Z,1003.80
2018-07-01T11:22:28.899Z,1003.80
2018-07-01T11:23:28.913Z,1003.72
2018-07-01T11:24:28.926Z,1003.76
2018-07-01T11:25:28.937Z,1003.79
2018-07-01T11:26:28.984Z,1003.75
2018-07-01T11:27:29.136Z,1003.79
2018-07-01T11:28:28.965Z,1003.80
2018-07-01T11:29:28.979Z,1003.82
2018-07-01T11:30:28.987Z,1003.88
2018-07-01T11:31:28.999Z,1003.90
2018-07-01T11:32:29.010Z,1003.86
2018-07-01T11:33:29.025Z,1003.83
2018-07-01T11:34:29.047Z,1003.79
2018-07-01T11:35:29.043Z,1003.70
2018-07-01T11:36:29.056Z,1003.64
2018-07-01T11:37:29.065Z,1003.69
2018-07-01T11:38:29.077Z,1003.73
2018-07-01T11:39:29.095Z,1003.73
2018-07-01T11:40:29.101Z,1003.75
2018-07-01T11:41:29.113Z,1003.79
2018-07-01T11:42:29.155Z,1003.88
2018-07-01T11:43:29.136Z,1003.83
2018-07-01T11:44:29.201Z,1003.88
2018-07-01T11:45:29.161Z,1003.82
2018-07-01T11:46:29.170Z,1003.82
2018-07-01T11:47:29.181Z,1003.84
2018-07-01T11:48:29.196Z,1003.84
2018-07-01T11:49:29.205Z,1003.82
2018-07-01T11:50:29.267Z,1003.84
2018-07-01T11:51:29.228Z,1003.80
2018-07-01T11:52:29.294Z,1003.79
2018-07-01T11:53:29.250Z,1003.83
2018-07-01T11:54:29.262Z,1003.85
2018-07-01T11:55:29.273Z,1003.95
2018-07-01T11:56:29.287Z,1003.85
2018-07-01T11:57:29.298Z,1003.75
2018-07-01T11:58:29.310Z,1003.71
2018-07-01T11:59:29.322Z,1003.71
2018-07-01T12:00:29.336Z,1003.73
2018-07-01T12:01:29.345Z,1003.74
2018-07-01T12:02:29.370Z,1003.74
2018-07-01T12:03:29.369Z,1003.76
2018-07-01T12:04:29.380Z,1003.86
2018-07-01T12:05:29.477Z,1003.72